Mount Vernon, Virginia
Current Conditions -  °F | °C
As of 5:58 AM on Saturday 25 Oct 2014 (Local Time) from KDAA Reporting Station
Clear Clear  
Wind Chill: 38°   Ceiling: Unl
Heat Index: 38°   Visibility: 10mi
Dew Point: 37°   Wind: 0mph
Humidity: 96%   Direction: NA
Pressure: 29.96"   Gusts: NA
Location:  38.71°N, 77.08°W
Report Text: KDAA 250958Z AUTO 00000KT 10SM CLR 03/03 A2996 RMK AO2 SLP149 T00330027
Loading
Personal Weather Stations






























Interactive Weather Map New forecast layout! Learn more

10-Day Weather Forecast

Advertisements
Track Severe Weather on mobile